Kvb Empire — PD5101 — position and weather

sailwx.info

Track history (hours):
 
Tides and Currents Weather Stations Pressure Air Temp Water Temp Dewpoint Dewpoint Depression Visibility Wind Speed Wind Dir Waves Ship Positions

Kvb Empire

Last reported at 2016-Dec-08 07:30 UTC. Time now 2016-Dec-08 14:28 UTC.
Position N 49°26' E 008°31'.

Length 183 m; draft 2 m.

Type: Ship. MMSI: 244670090.

Date/timePositionNaut miles runAvg speedWind from/ knotsBaromVisibWave heightAir tempDewpointWater temp
2016-Dec-08 07:30N 49°26' E 008°31'100 2.6
2016-Dec-06 16:13N 50°49' E 007°02'3 3.7
2016-Dec-06 15:31N 50°51' E 006°59'3 3.4
2016-Dec-06 14:31N 50°54' E 007°02'4 4.0
2016-Dec-06 13:30N 50°57' E 006°59'34 3.1
2016-Dec-06 02:30N 51°30' E 006°42'4 4.6
2016-Dec-06 01:33N 51°34' E 006°41'4 4.0
2016-Dec-06 00:33N 51°36' E 006°36'4 3.9
2016-Dec-05 23:33N 51°39' E 006°33'6 5.4
2016-Dec-05 22:27N 51°43' E 006°25'4 4.1
2016-Dec-05 21:33N 51°45' E 006°21'6 6.0
2016-Dec-05 20:33N 51°50' E 006°14'6 5.9
2016-Dec-05 19:33N 51°51' E 006°05'5 5.0
2016-Dec-05 18:33N 51°52' E 005°57'5 5.0
2016-Dec-05 17:33N 51°52' E 005°49'6 6.3
2016-Dec-05 16:33N 51°54' E 005°39'7 6.4
2016-Dec-05 15:31N 51°53' E 005°28'6 6.4
2016-Dec-05 14:33N 51°48' E 005°22'9 6.5
2016-Dec-05 13:07N 51°49' E 005°07'5 7.2
2016-Dec-05 12:29N 51°49' E 004°59'7 7.9
2016-Dec-05 11:33N 51°49' E 004°48'5 5.1
2016-Dec-05 10:34N 51°49' E 004°39'0 0.0
2016-Dec-05 09:33N 51°49' E 004°39'0 0.0
2016-Dec-05 08:34N 51°49' E 004°39'0 0.0
2016-Dec-05 07:34N 51°49' E 004°39'0 0.0
2016-Dec-05 06:34N 51°49' E 004°39'0 0.0
2016-Dec-05 05:34N 51°49' E 004°39'3 3.2
2016-Dec-05 04:33N 51°49' E 004°34'4 3.9
2016-Dec-05 03:33N 51°50' E 004°28'5 5.0
2016-Dec-05 02:33N 51°51' E 004°20'3 3.1
2016-Dec-05 01:33N 51°53' E 004°16'0 0.0
2016-Dec-05 00:33N 51°53' E 004°16'0 0.1
2016-Dec-04 23:33N 51°53' E 004°16'0 0.0
2016-Dec-04 22:33N 51°53' E 004°16'0 0.3
2016-Dec-04 21:33N 51°53' E 004°16'0 0.0
2016-Dec-04 20:33N 51°53' E 004°16'0 0.0
2016-Dec-04 19:33N 51°53' E 004°16'0 0.0
2016-Dec-04 18:33N 51°53' E 004°16'0 0.0
2016-Dec-04 17:33N 51°53' E 004°16'0 0.0
2016-Dec-04 16:33N 51°53' E 004°16'0 0.0
2016-Dec-04 15:33N 51°53' E 004°16'0 0.0
2016-Dec-04 14:33N 51°53' E 004°16'0 0.0
2016-Dec-04 13:33N 51°53' E 004°16'0 0.0
2016-Dec-04 12:33N 51°53' E 004°16'3 2.7
2016-Dec-04 11:33N 51°55' E 004°14'6 6.2
2016-Dec-04 10:33N 51°58' E 004°05'2 2.3
2016-Dec-04 09:33N 51°57' E 004°03'0 0.0
2016-Dec-04 08:33N 51°57' E 004°03'0 0.0
2016-Dec-04 07:33N 51°57' E 004°03'0 0.0
2016-Dec-04 06:33N 51°57' E 004°03'0 0.0
2016-Dec-04 05:33N 51°57' E 004°03'0 0.0
2016-Dec-04 04:33N 51°57' E 004°03'0 0.0
2016-Dec-04 03:33N 51°57' E 004°03'0 0.0
2016-Dec-04 02:33N 51°57' E 004°03'0 0.0
2016-Dec-04 01:33N 51°57' E 004°03'0 0.2
2016-Dec-04 00:33N 51°57' E 004°02'0 0.0
2016-Dec-03 23:33N 51°57' E 004°02'0 0.0
2016-Dec-03 22:33N 51°57' E 004°02'0 0.5
2016-Dec-03 21:33N 51°57' E 004°03'2 1.5
2016-Dec-03 20:33N 51°58' E 004°03'1 0.8
2016-Dec-03 19:33N 51°57' E 004°03'0 0.0
2016-Dec-03 18:33N 51°57' E 004°03'0 0.0
2016-Dec-03 17:33N 51°57' E 004°03'0 0.0
2016-Dec-03 16:33N 51°57' E 004°03'1 1.0
2016-Dec-03 15:33N 51°57' E 004°02'0 0.0
2016-Dec-03 14:33N 51°57' E 004°02'0 0.4
2016-Dec-03 13:33N 51°56' E 004°02'2 1.8
2016-Dec-03 12:33N 51°57' E 004°04'7 6.9
2016-Dec-03 11:33N 51°53' E 004°14'9 9.0
2016-Dec-03 10:33N 51°50' E 004°27'8 8.0
2016-Dec-03 09:33N 51°49' E 004°40'9 8.7
2016-Dec-03 08:33N 51°49' E 004°54'10 7.7
2016-Dec-03 07:15N 51°49' E 005°10'6 7.9
2016-Dec-03 06:31N 51°49' E 005°20'7 7.2
2016-Dec-03 05:32N 51°53' E 005°29'8 8.5
2016-Dec-03 04:33N 51°54' E 005°42'7 7.5
2016-Dec-03 03:33N 51°52' E 005°54'7 6.8
2016-Dec-03 02:33N 51°51' E 006°05'9 8.7
2016-Dec-03 01:33N 51°48' E 006°18'7 7.1
2016-Dec-03 00:33N 51°43' E 006°25'8 7.9
2016-Dec-02 23:32N 51°39' E 006°36'6 6.0
2016-Dec-02 22:33N 51°34' E 006°41'35 5.8
2016-Dec-02 16:32N 51°00' E 006°58'7 6.7
2016-Dec-02 15:29N 50°54' E 007°02'104 3.6
2016-Dec-01 10:14N 49°26' E 008°31'  
2016-Nov-28 21:26N 50°41' E 007°11'4 4.9
2016-Nov-28 20:33N 50°45' E 007°06'5 4.9
2016-Nov-28 19:28N 50°49' E 007°02'3 2.8
2016-Nov-28 18:33N 50°52' E 007°01'3 2.8
2016-Nov-28 17:29N 50°54' E 006°59'5 4.8
2016-Nov-28 16:31N 50°59' E 006°60'  
Track history (hours):
 
Tides and Currents Weather Stations Pressure Air Temp Water Temp Dewpoint Dewpoint Depression Visibility Wind Speed Wind Dir Waves Ship Positions

Kvb Empire

Last reported at 2016-Dec-08 07:30 UTC. Time now 2016-Dec-08 14:28 UTC.
Position N 49°26' E 008°31'.

Length 183 m; draft 2 m.

Type: Ship. MMSI: 244670090.

Date/timePositionNaut miles runAvg speedWind from/ knotsBaromVisibWave heightAir tempDewpointWater temp
2016-Dec-08 07:30N 49°26' E 008°31'100 2.6
2016-Dec-06 16:13N 50°49' E 007°02'3 3.7
2016-Dec-06 15:31N 50°51' E 006°59'3 3.4
2016-Dec-06 14:31N 50°54' E 007°02'4 4.0
2016-Dec-06 13:30N 50°57' E 006°59'34 3.1
2016-Dec-06 02:30N 51°30' E 006°42'4 4.6
2016-Dec-06 01:33N 51°34' E 006°41'4 4.0
2016-Dec-06 00:33N 51°36' E 006°36'4 3.9
2016-Dec-05 23:33N 51°39' E 006°33'6 5.4
2016-Dec-05 22:27N 51°43' E 006°25'4 4.1
2016-Dec-05 21:33N 51°45' E 006°21'6 6.0
2016-Dec-05 20:33N 51°50' E 006°14'6 5.9
2016-Dec-05 19:33N 51°51' E 006°05'5 5.0
2016-Dec-05 18:33N 51°52' E 005°57'5 5.0
2016-Dec-05 17:33N 51°52' E 005°49'6 6.3
2016-Dec-05 16:33N 51°54' E 005°39'7 6.4
2016-Dec-05 15:31N 51°53' E 005°28'6 6.4
2016-Dec-05 14:33N 51°48' E 005°22'9 6.5
2016-Dec-05 13:07N 51°49' E 005°07'5 7.2
2016-Dec-05 12:29N 51°49' E 004°59'7 7.9
2016-Dec-05 11:33N 51°49' E 004°48'5 5.1
2016-Dec-05 10:34N 51°49' E 004°39'0 0.0
2016-Dec-05 09:33N 51°49' E 004°39'0 0.0
2016-Dec-05 08:34N 51°49' E 004°39'0 0.0
2016-Dec-05 07:34N 51°49' E 004°39'0 0.0
2016-Dec-05 06:34N 51°49' E 004°39'0 0.0
2016-Dec-05 05:34N 51°49' E 004°39'3 3.2
2016-Dec-05 04:33N 51°49' E 004°34'4 3.9
2016-Dec-05 03:33N 51°50' E 004°28'5 5.0
2016-Dec-05 02:33N 51°51' E 004°20'3 3.1
2016-Dec-05 01:33N 51°53' E 004°16'0 0.0
2016-Dec-05 00:33N 51°53' E 004°16'0 0.1
2016-Dec-04 23:33N 51°53' E 004°16'0 0.0
2016-Dec-04 22:33N 51°53' E 004°16'0 0.3
2016-Dec-04 21:33N 51°53' E 004°16'0 0.0
2016-Dec-04 20:33N 51°53' E 004°16'0 0.0
2016-Dec-04 19:33N 51°53' E 004°16'0 0.0
2016-Dec-04 18:33N 51°53' E 004°16'0 0.0
2016-Dec-04 17:33N 51°53' E 004°16'0 0.0
2016-Dec-04 16:33N 51°53' E 004°16'0 0.0
2016-Dec-04 15:33N 51°53' E 004°16'0 0.0
2016-Dec-04 14:33N 51°53' E 004°16'0 0.0
2016-Dec-04 13:33N 51°53' E 004°16'0 0.0
2016-Dec-04 12:33N 51°53' E 004°16'3 2.7
2016-Dec-04 11:33N 51°55' E 004°14'6 6.2
2016-Dec-04 10:33N 51°58' E 004°05'2 2.3
2016-Dec-04 09:33N 51°57' E 004°03'0 0.0
2016-Dec-04 08:33N 51°57' E 004°03'0 0.0
2016-Dec-04 07:33N 51°57' E 004°03'0 0.0
2016-Dec-04 06:33N 51°57' E 004°03'0 0.0
2016-Dec-04 05:33N 51°57' E 004°03'0 0.0
2016-Dec-04 04:33N 51°57' E 004°03'0 0.0
2016-Dec-04 03:33N 51°57' E 004°03'0 0.0
2016-Dec-04 02:33N 51°57' E 004°03'0 0.0
2016-Dec-04 01:33N 51°57' E 004°03'0 0.2
2016-Dec-04 00:33N 51°57' E 004°02'0 0.0
2016-Dec-03 23:33N 51°57' E 004°02'0 0.0
2016-Dec-03 22:33N 51°57' E 004°02'0 0.5
2016-Dec-03 21:33N 51°57' E 004°03'2 1.5
2016-Dec-03 20:33N 51°58' E 004°03'1 0.8
2016-Dec-03 19:33N 51°57' E 004°03'0 0.0
2016-Dec-03 18:33N 51°57' E 004°03'0 0.0
2016-Dec-03 17:33N 51°57' E 004°03'0 0.0
2016-Dec-03 16:33N 51°57' E 004°03'1 1.0
2016-Dec-03 15:33N 51°57' E 004°02'0 0.0
2016-Dec-03 14:33N 51°57' E 004°02'0 0.4
2016-Dec-03 13:33N 51°56' E 004°02'2 1.8
2016-Dec-03 12:33N 51°57' E 004°04'7 6.9
2016-Dec-03 11:33N 51°53' E 004°14'9 9.0
2016-Dec-03 10:33N 51°50' E 004°27'8 8.0
2016-Dec-03 09:33N 51°49' E 004°40'9 8.7
2016-Dec-03 08:33N 51°49' E 004°54'10 7.7
2016-Dec-03 07:15N 51°49' E 005°10'6 7.9
2016-Dec-03 06:31N 51°49' E 005°20'7 7.2
2016-Dec-03 05:32N 51°53' E 005°29'8 8.5
2016-Dec-03 04:33N 51°54' E 005°42'7 7.5
2016-Dec-03 03:33N 51°52' E 005°54'7 6.8
2016-Dec-03 02:33N 51°51' E 006°05'9 8.7
2016-Dec-03 01:33N 51°48' E 006°18'7 7.1
2016-Dec-03 00:33N 51°43' E 006°25'8 7.9
2016-Dec-02 23:32N 51°39' E 006°36'6 6.0
2016-Dec-02 22:33N 51°34' E 006°41'35 5.8
2016-Dec-02 16:32N 51°00' E 006°58'7 6.7
2016-Dec-02 15:29N 50°54' E 007°02'104 3.6
2016-Dec-01 10:14N 49°26' E 008°31'  
2016-Nov-28 21:26N 50°41' E 007°11'4 4.9
2016-Nov-28 20:33N 50°45' E 007°06'5 4.9
2016-Nov-28 19:28N 50°49' E 007°02'3 2.8
2016-Nov-28 18:33N 50°52' E 007°01'3 2.8
2016-Nov-28 17:29N 50°54' E 006°59'5 4.8
2016-Nov-28 16:31N 50°59' E 006°60'  

Dump ship's entire track history